Time;durP1;ratioP1;P1;durP2;ratioP2;P2;SDS_P1;SDS_P2;PMS_P1;PMS_P2;Temp;Humidity;BMP_temperature;BMP_pressure;BME280_temperature;BME280_humidity;BME280_pressure;Samples;Min_cycle;Max_cycle;Signal;HPM_P1;HPM_P2
2021/01/05 00:00:43;;;;;;;13.70;9.57;;;3.40;99.90;;;-146.47;100.00;66290.13;4888503;29;20216;-79
2021/01/05 00:03:29;;;;;;;14.73;10.10;;;3.40;99.90;;;-146.47;100.00;66290.13;4898181;29;20229;-77
2021/01/05 00:06:14;;;;;;;15.43;10.67;;;3.40;99.90;;;-146.47;100.00;66290.13;4901474;29;20268;-77
2021/01/05 00:09:00;;;;;;;14.50;10.13;;;3.40;99.90;;;-146.47;100.00;66290.13;4901023;29;20256;-78
2021/01/05 00:11:57;;;;;;;14.47;10.20;;;3.40;99.90;;;-146.47;100.00;66290.13;4901766;29;20216;-76
2021/01/05 00:14:44;;;;;;;15.33;10.80;;;3.40;99.90;;;-146.47;100.00;66290.13;4896682;29;20204;-78
2021/01/05 00:17:29;;;;;;;21.03;12.00;;;3.40;99.90;;;-146.47;100.00;66290.13;4898274;29;20260;-77
2021/01/05 00:20:19;;;;;;;15.20;11.17;;;3.40;99.90;;;-146.47;100.00;66290.13;4901391;29;20212;-78
2021/01/05 00:23:04;;;;;;;15.90;11.27;;;3.40;99.90;;;-146.47;100.00;66290.13;4901130;29;20248;-77
2021/01/05 00:25:50;;;;;;;15.53;10.43;;;3.40;99.90;;;-146.47;100.00;66290.13;4895257;29;20760;-75
2021/01/05 00:28:35;;;;;;;15.67;10.27;;;3.40;99.90;;;-146.47;100.00;66290.13;4893326;29;20730;-77
2021/01/05 00:31:20;;;;;;;15.30;10.47;;;3.40;99.90;;;-146.47;100.00;66290.13;4899538;29;20328;-77
2021/01/05 00:34:07;;;;;;;17.33;10.67;;;3.50;99.90;;;-146.47;100.00;66290.13;4900129;29;20237;-77
2021/01/05 00:36:52;;;;;;;16.80;11.67;;;3.40;99.90;;;-146.47;100.00;66290.13;4901106;29;20281;-77
2021/01/05 00:39:37;;;;;;;16.63;11.30;;;3.40;99.90;;;-146.47;100.00;66290.13;4895859;29;20708;-77
2021/01/05 00:42:23;;;;;;;15.73;10.37;;;3.40;99.90;;;-146.47;100.00;66290.13;4900357;29;20415;-77
2021/01/05 00:45:10;;;;;;;16.57;10.50;;;3.40;99.90;;;-146.47;100.00;66290.13;4900871;29;20212;-77
2021/01/05 00:47:55;;;;;;;15.53;10.13;;;3.40;99.90;;;-146.47;100.00;66290.13;4900763;29;20207;-77
2021/01/05 00:50:41;;;;;;;15.70;8.83;;;3.40;99.90;;;-146.47;100.00;66290.13;4895639;29;20208;-76
2021/01/05 00:53:26;;;;;;;15.30;9.60;;;3.40;99.90;;;-146.47;100.00;66290.13;4911516;29;20220;-76
2021/01/05 00:56:11;;;;;;;17.90;11.20;;;3.50;99.90;;;-146.47;100.00;66290.13;4911720;29;20211;-78
2021/01/05 00:58:57;;;;;;;16.60;10.47;;;3.40;99.90;;;-146.47;100.00;66290.13;4903439;29;20237;-76
2021/01/05 01:01:42;;;;;;;17.97;11.73;;;3.40;99.90;;;-146.47;100.00;66290.13;4900530;29;20230;-76
2021/01/05 01:04:28;;;;;;;19.07;12.57;;;3.40;99.90;;;-146.47;100.00;66290.13;4901108;29;20228;-78
2021/01/05 01:07:13;;;;;;;16.93;11.53;;;3.40;99.90;;;-146.47;100.00;66290.13;4901025;29;20211;-78
2021/01/05 01:09:58;;;;;;;19.13;10.90;;;3.40;99.90;;;-146.47;100.00;66290.13;4901505;29;20771;-77
2021/01/05 01:12:43;;;;;;;16.93;10.97;;;3.40;99.90;;;-146.47;100.00;66290.13;4902337;29;20215;-77
2021/01/05 01:15:29;;;;;;;17.53;11.43;;;3.30;99.90;;;-146.47;100.00;66290.13;4899465;29;20227;-77
2021/01/05 01:18:15;;;;;;;15.07;10.50;;;3.40;99.90;;;-146.47;100.00;66290.13;4897832;29;20316;-76
2021/01/05 01:21:00;;;;;;;15.40;10.27;;;3.40;99.90;;;-146.47;100.00;66290.13;4901586;29;20232;-77
2021/01/05 01:23:45;;;;;;;16.47;10.80;;;3.40;99.90;;;-146.47;100.00;66290.13;4901628;29;20216;-77
2021/01/05 01:26:30;;;;;;;15.57;11.43;;;3.40;99.90;;;-146.47;100.00;66290.13;4894467;29;20227;-78
2021/01/05 01:29:17;;;;;;;17.67;10.37;;;3.40;99.90;;;-146.47;100.00;66290.13;4901971;29;20243;-76
2021/01/05 01:32:04;;;;;;;17.53;11.10;;;3.30;99.90;;;-146.47;100.00;66290.13;4899255;29;20201;-78
2021/01/05 01:34:49;;;;;;;15.07;9.60;;;3.40;99.90;;;-146.47;100.00;66290.13;4900012;29;20362;-76
2021/01/05 01:37:34;;;;;;;16.37;10.67;;;3.30;99.90;;;-146.47;100.00;66290.13;4899037;29;20236;-76
2021/01/05 01:40:32;;;;;;;16.13;10.70;;;3.40;99.90;;;-146.47;100.00;66290.13;4900264;29;20244;-77
2021/01/05 01:43:17;;;;;;;19.17;11.13;;;3.40;99.90;;;-146.47;100.00;66290.13;4900052;29;20212;-77
2021/01/05 01:46:03;;;;;;;17.73;11.43;;;3.40;99.90;;;-146.47;100.00;66290.13;4882069;29;20610;-78
2021/01/05 01:48:49;;;;;;;18.17;11.80;;;3.40;99.90;;;-146.47;100.00;66290.13;4881184;29;20909;-76
2021/01/05 01:51:35;;;;;;;17.70;10.23;;;3.40;99.90;;;-146.47;100.00;66290.13;4891277;29;20253;-77
2021/01/05 01:55:05;;;;;;;16.77;10.70;;;3.30;99.90;;;-146.47;100.00;66290.13;4898742;29;20264;-76
2021/01/05 01:58:22;;;;;;;15.63;11.43;;;3.40;99.90;;;-146.47;100.00;66290.13;4899432;29;20238;-76
2021/01/05 02:01:22;;;;;;;19.97;11.90;;;3.40;99.90;;;-146.47;100.00;66290.13;4894197;29;20728;-77
2021/01/05 02:04:52;;;;;;;17.27;11.57;;;3.40;99.90;;;-146.47;100.00;66290.13;4899561;29;20721;-77
2021/01/05 02:07:57;;;;;;;18.27;10.70;;;3.30;99.90;;;-146.47;100.00;66290.13;4888797;29;20312;-77
2021/01/05 02:11:01;;;;;;;17.27;10.77;;;3.30;99.90;;;-146.47;100.00;66290.13;4897487;29;20211;-77
2021/01/05 02:14:33;;;;;;;17.57;11.60;;;3.50;99.90;;;-146.47;100.00;66290.13;4891898;29;20750;-77
2021/01/05 02:18:10;;;;;;;16.90;10.23;;;3.30;99.90;;;-146.47;100.00;66290.13;4881955;29;20209;-77
2021/01/05 02:21:02;;;;;;;16.23;10.57;;;3.30;99.90;;;-146.47;100.00;66290.13;4892801;29;20367;-76
2021/01/05 02:24:19;;;;;;;14.77;9.03;;;3.30;99.90;;;-146.47;100.00;66290.13;4888004;29;20559;-77
2021/01/05 02:27:09;;;;;;;15.07;9.23;;;3.30;99.90;;;-146.47;100.00;66290.13;4886780;29;20341;-78
2021/01/05 02:30:00;;;;;;;14.93;10.33;;;3.20;99.90;;;-146.47;100.00;66290.13;4900518;29;20339;-78
2021/01/05 02:32:57;;;;;;;17.20;11.07;;;3.30;99.90;;;-146.47;100.00;66290.13;4898933;29;20721;-78
2021/01/05 02:36:31;;;;;;;14.10;9.60;;;3.30;99.90;;;-146.47;100.00;66290.13;4898753;29;20212;-77
2021/01/05 02:39:39;;;;;;;15.10;9.63;;;3.30;99.90;;;-146.47;100.00;66290.13;4890609;29;20320;-77
2021/01/05 02:43:01;;;;;;;15.60;9.73;;;3.40;99.90;;;-146.47;100.00;66290.13;4888559;29;20224;-76
2021/01/05 02:46:08;;;;;;;14.77;10.00;;;3.30;99.90;;;-146.47;100.00;66290.13;4888641;29;20213;-76
2021/01/05 02:49:11;;;;;;;15.77;10.30;;;3.30;99.90;;;-146.47;100.00;66290.13;4898903;29;20291;-78
2021/01/05 02:52:48;;;;;;;14.70;9.03;;;3.30;99.90;;;-146.47;100.00;66290.13;4894915;29;20239;-76
2021/01/05 02:56:31;;;;;;;14.50;9.33;;;3.30;99.90;;;-146.47;100.00;66290.13;4897746;29;20268;-76
2021/01/05 03:00:01;;;;;;;16.03;9.87;;;3.30;99.90;;;-146.47;100.00;66290.13;4888175;29;20253;-76
2021/01/05 03:03:39;;;;;;;16.20;9.97;;;3.30;99.90;;;-146.47;100.00;66290.13;4887943;29;20212;-77
2021/01/05 03:06:35;;;;;;;16.57;10.83;;;3.30;99.90;;;-146.47;100.00;66290.13;4890139;29;20208;-77
2021/01/05 03:09:45;;;;;;;14.90;10.13;;;3.10;99.90;;;-146.47;100.00;66290.13;4887991;29;20321;-76
2021/01/05 03:12:58;;;;;;;15.70;10.90;;;3.30;99.90;;;-146.47;100.00;66290.13;4898669;29;20216;-77
2021/01/05 03:15:51;;;;;;;15.83;10.57;;;3.30;99.90;;;-146.47;100.00;66290.13;4895528;29;20204;-76
2021/01/05 03:18:50;;;;;;;17.40;11.43;;;3.30;99.90;;;-146.47;100.00;66290.13;4901680;29;20244;-78
2021/01/05 03:21:43;;;;;;;18.47;11.47;;;3.30;99.90;;;-146.47;100.00;66290.13;4892629;29;20231;-77
2021/01/05 03:24:31;;;;;;;15.87;10.80;;;3.30;99.90;;;-146.47;100.00;66290.13;4902122;29;20212;-77
2021/01/05 03:27:18;;;;;;;15.53;10.00;;;3.30;99.90;;;-146.47;100.00;66290.13;4898357;29;20224;-78
2021/01/05 03:30:13;;;;;;;18.07;11.00;;;3.30;99.90;;;-146.47;100.00;66290.13;4901054;29;20252;-76
2021/01/05 03:32:59;;;;;;;20.20;12.37;;;3.30;99.90;;;-146.47;100.00;66290.13;4902299;29;20208;-78
2021/01/05 03:35:44;;;;;;;17.10;11.73;;;3.30;99.90;;;-146.47;100.00;66290.13;4902265;29;20247;-78
2021/01/05 03:38:29;;;;;;;19.30;12.27;;;3.30;99.90;;;-146.47;100.00;66290.13;4902077;29;20622;-78
2021/01/05 03:41:15;;;;;;;19.23;13.23;;;3.30;99.90;;;-146.47;100.00;66290.13;4902452;29;20910;-76
2021/01/05 03:44:00;;;;;;;18.10;11.03;;;3.40;99.90;;;-146.47;100.00;66290.13;4892865;29;20229;-77
2021/01/05 03:46:45;;;;;;;20.50;12.60;;;3.30;99.90;;;-146.47;100.00;66290.13;4902346;29;20248;-77
2021/01/05 03:49:31;;;;;;;17.50;11.80;;;3.60;99.90;;;-146.47;100.00;66290.13;4903170;29;20292;-77
2021/01/05 03:52:16;;;;;;;19.67;11.90;;;3.40;99.90;;;-146.47;100.00;66290.13;4901335;29;20574;-77
2021/01/05 03:55:01;;;;;;;19.53;12.53;;;3.40;99.90;;;-146.47;100.00;66290.13;4903056;29;20212;-77
2021/01/05 03:57:47;;;;;;;17.93;11.03;;;3.40;99.90;;;-146.47;100.00;66290.13;4902495;29;20257;-77
2021/01/05 04:00:32;;;;;;;18.43;12.43;;;3.40;99.90;;;-146.47;100.00;66290.13;4901122;29;20208;-77
2021/01/05 04:03:17;;;;;;;19.47;12.27;;;3.40;99.90;;;-146.47;100.00;66290.13;4903836;29;20303;-77
2021/01/05 04:06:04;;;;;;;17.73;12.87;;;3.40;99.90;;;-146.47;100.00;66290.13;4903498;29;20264;-76
2021/01/05 04:08:49;;;;;;;18.53;13.00;;;3.40;99.90;;;-146.47;100.00;66290.13;4900591;29;20228;-77
2021/01/05 04:11:34;;;;;;;19.37;12.27;;;3.40;99.90;;;-146.47;100.00;66290.13;4904137;29;20257;-77
2021/01/05 04:14:19;;;;;;;18.23;11.37;;;3.40;99.90;;;-146.47;100.00;66290.13;4904119;29;20743;-77
2021/01/05 04:17:04;;;;;;;20.17;12.70;;;3.40;99.90;;;-146.47;100.00;66290.13;4905717;29;20204;-79
2021/01/05 04:19:49;;;;;;;18.63;12.53;;;3.40;99.90;;;-146.47;100.00;66290.13;4912555;29;20232;-78
2021/01/05 04:22:35;;;;;;;19.63;12.10;;;3.50;99.90;;;-146.47;100.00;66290.13;4921363;29;20207;-77
2021/01/05 04:25:21;;;;;;;19.87;12.77;;;3.40;99.90;;;-146.47;100.00;66290.13;4923510;29;20216;-76
2021/01/05 04:28:06;;;;;;;18.90;13.17;;;3.40;99.90;;;-146.47;100.00;66290.13;4903443;29;20702;-75
2021/01/05 04:30:51;;;;;;;17.63;12.30;;;3.50;99.90;;;-146.47;100.00;66290.13;4902548;29;20208;-76
2021/01/05 04:33:37;;;;;;;20.57;14.20;;;3.50;99.90;;;-146.47;100.00;66290.13;4901019;29;20248;-77
2021/01/05 04:36:22;;;;;;;21.37;13.13;;;3.50;99.90;;;-146.47;100.00;66290.13;4898677;29;20252;-78
2021/01/05 04:39:09;;;;;;;19.00;12.43;;;3.50;99.90;;;-146.47;100.00;66290.13;4902329;29;20606;-78
2021/01/05 04:42:05;;;;;;;19.80;12.97;;;3.50;99.90;;;-146.47;100.00;66290.13;4901478;29;20304;-77
2021/01/05 04:44:59;;;;;;;21.70;13.63;;;3.40;99.90;;;-146.47;100.00;66290.13;4899533;29;20212;-77
2021/01/05 04:48:02;;;;;;;20.37;12.27;;;3.50;99.90;;;-146.47;100.00;66290.13;4899773;29;20208;-76
2021/01/05 04:50:54;;;;;;;18.57;12.03;;;3.50;99.90;;;-146.47;100.00;66290.13;4888983;29;20207;-77
2021/01/05 04:53:47;;;;;;;22.73;15.23;;;3.50;99.90;;;-146.47;100.00;66290.13;4899695;29;20722;-77
2021/01/05 04:56:59;;;;;;;20.03;13.60;;;3.50;99.90;;;-146.47;100.00;66290.13;4899761;29;20224;-77
2021/01/05 04:59:51;;;;;;;21.20;13.60;;;3.50;99.90;;;-146.47;100.00;66290.13;4892930;29;20745;-76
2021/01/05 05:02:53;;;;;;;23.03;12.97;;;3.50;99.90;;;-146.47;100.00;66290.13;4899631;29;20225;-78
2021/01/05 05:06:03;;;;;;;22.47;13.40;;;3.50;99.90;;;-146.47;100.00;66290.13;4899443;29;20256;-77
2021/01/05 05:09:23;;;;;;;19.77;12.33;;;3.50;99.90;;;-146.47;100.00;66290.13;4899291;29;20267;-77
2021/01/05 05:12:28;;;;;;;20.67;12.37;;;3.50;99.90;;;-146.47;100.00;66290.13;4900359;29;20211;-77
2021/01/05 05:15:42;;;;;;;19.80;12.40;;;3.50;99.90;;;-146.47;100.00;66290.13;4897907;29;20296;-77
2021/01/05 05:18:42;;;;;;;18.77;11.23;;;3.50;99.90;;;-146.47;100.00;66290.13;4892025;29;20763;-78
2021/01/05 05:21:36;;;;;;;21.63;11.53;;;3.40;99.90;;;-146.47;100.00;66290.13;4888125;29;20213;-77
2021/01/05 05:24:35;;;;;;;20.70;12.67;;;3.40;99.90;;;-146.47;100.00;66290.13;4898190;29;20605;-77
2021/01/05 05:27:37;;;;;;;18.43;12.57;;;3.40;99.90;;;-146.47;100.00;66290.13;4909240;29;20237;-77
2021/01/05 05:30:34;;;;;;;19.93;12.50;;;3.40;99.90;;;-146.47;100.00;66290.13;4901057;29;20278;-77
2021/01/05 05:33:27;;;;;;;19.00;12.17;;;3.40;99.90;;;-146.47;100.00;66290.13;4914655;29;20200;-77
2021/01/05 05:37:02;;;;;;;18.63;11.87;;;3.50;99.90;;;-146.47;100.00;66290.13;4908142;29;20293;-77
2021/01/05 05:40:19;;;;;;;19.00;11.30;;;3.50;99.90;;;-146.47;100.00;66290.13;4899945;29;20240;-77
2021/01/05 05:43:33;;;;;;;18.67;11.10;;;3.40;99.90;;;-146.47;100.00;66290.13;4900581;29;20395;-76
2021/01/05 05:46:29;;;;;;;18.93;11.47;;;3.50;99.90;;;-146.47;100.00;66290.13;4895702;29;20216;-77
2021/01/05 05:49:35;;;;;;;18.23;11.83;;;3.40;99.90;;;-146.47;100.00;66290.13;4901461;29;20590;-79
2021/01/05 05:52:33;;;;;;;18.20;12.43;;;3.30;99.90;;;-146.47;100.00;66290.13;4897459;29;20241;-77
2021/01/05 05:55:33;;;;;;;19.97;12.23;;;3.40;99.90;;;-146.47;100.00;66290.13;4898511;29;20212;-77
2021/01/05 05:58:25;;;;;;;17.17;10.40;;;3.40;99.90;;;-146.47;100.00;66290.13;4899120;29;20236;-75
2021/01/05 06:01:19;;;;;;;18.53;12.10;;;3.40;99.90;;;-146.47;100.00;66290.13;4887850;29;20212;-77
2021/01/05 06:04:07;;;;;;;18.30;11.57;;;3.40;99.90;;;-146.47;100.00;66290.13;4898751;29;20670;-76
2021/01/05 06:06:52;;;;;;;18.63;11.80;;;3.40;99.90;;;-146.47;100.00;66290.13;4898865;29;20295;-78
2021/01/05 06:09:37;;;;;;;18.63;11.73;;;3.40;99.90;;;-146.47;100.00;66290.13;4898853;29;20224;-78
2021/01/05 06:12:23;;;;;;;19.57;12.37;;;3.50;99.90;;;-146.47;100.00;66290.13;4899196;29;20269;-78
2021/01/05 06:15:10;;;;;;;19.03;11.43;;;3.40;99.90;;;-146.47;100.00;66290.13;4898641;29;20216;-77
2021/01/05 06:17:55;;;;;;;18.40;11.17;;;3.40;99.90;;;-146.47;100.00;66290.13;4899636;29;20234;-78
2021/01/05 06:20:40;;;;;;;17.70;11.20;;;3.40;99.90;;;-146.47;100.00;66290.13;4898574;29;20307;-77
2021/01/05 06:23:25;;;;;;;18.17;11.67;;;3.50;99.90;;;-146.47;100.00;66290.13;4898660;29;20228;-77
2021/01/05 06:26:11;;;;;;;21.30;12.73;;;3.50;99.90;;;-146.47;100.00;66290.13;4894058;29;20305;-77
2021/01/05 06:28:56;;;;;;;20.03;11.83;;;3.50;99.90;;;-146.47;100.00;66290.13;4899394;29;20284;-76
2021/01/05 06:31:42;;;;;;;16.50;11.47;;;3.50;99.90;;;-146.47;100.00;66290.13;4898506;29;20197;-77
2021/01/05 06:34:27;;;;;;;17.57;11.87;;;3.50;99.90;;;-146.47;100.00;66290.13;4898066;29;20296;-77
2021/01/05 06:37:12;;;;;;;17.90;12.13;;;3.50;99.90;;;-146.47;100.00;66290.13;4894858;29;20269;-77
2021/01/05 06:39:57;;;;;;;19.20;13.33;;;3.50;99.90;;;-146.47;100.00;66290.13;4897697;29;20357;-78
2021/01/05 06:42:43;;;;;;;19.50;12.67;;;3.50;99.90;;;-146.47;100.00;66290.13;4898391;29;20227;-76
2021/01/05 06:45:32;;;;;;;19.03;12.40;;;3.50;99.90;;;-146.47;100.00;66290.13;4898456;29;20582;-77
2021/01/05 06:48:18;;;;;;;17.53;10.90;;;3.50;99.90;;;-146.47;100.00;66290.13;4898297;29;20283;-77
2021/01/05 06:51:04;;;;;;;18.20;11.33;;;3.50;99.90;;;-146.47;100.00;66290.13;4898554;29;20884;-77
2021/01/05 06:53:49;;;;;;;18.20;11.43;;;3.50;99.90;;;-146.47;100.00;66290.13;4902405;29;20215;-77
2021/01/05 06:56:47;;;;;;;16.17;10.40;;;3.50;99.90;;;-146.47;100.00;66290.13;4903718;29;20284;-77
2021/01/05 06:59:32;;;;;;;19.73;11.93;;;3.50;99.90;;;-146.47;100.00;66290.13;4902298;29;20288;-77
2021/01/05 07:02:18;;;;;;;18.33;12.70;;;3.50;99.90;;;-146.47;100.00;66290.13;4898930;29;20685;-77
2021/01/05 07:05:05;;;;;;;16.90;10.70;;;3.50;99.90;;;-146.47;100.00;66290.13;4902406;29;20678;-76
2021/01/05 07:07:51;;;;;;;19.63;11.90;;;3.50;99.90;;;-146.47;100.00;66290.13;4890862;29;20220;-76
2021/01/05 07:10:35;;;;;;;19.97;12.40;;;3.50;99.90;;;-146.47;100.00;66290.13;4895976;29;20215;-78
2021/01/05 07:13:21;;;;;;;19.57;11.87;;;3.50;99.90;;;-146.47;100.00;66290.13;4898100;29;20340;-77
2021/01/05 07:16:06;;;;;;;19.50;11.47;;;3.50;99.90;;;-146.47;100.00;66290.13;4899112;29;20341;-77
2021/01/05 07:18:51;;;;;;;21.00;12.83;;;3.50;99.90;;;-146.47;100.00;66290.13;4897690;29;20778;-77
2021/01/05 07:21:38;;;;;;;17.10;10.63;;;3.50;99.90;;;-146.47;100.00;66290.13;4894641;29;20220;-77
2021/01/05 07:24:26;;;;;;;19.00;12.07;;;3.50;99.90;;;-146.47;100.00;66290.13;4895234;29;20228;-78
2021/01/05 07:27:12;;;;;;;20.30;11.60;;;3.60;99.90;;;-146.47;100.00;66290.13;4885899;29;20212;-77
2021/01/05 07:29:57;;;;;;;19.90;12.80;;;3.60;99.90;;;-146.47;100.00;66290.13;4900076;29;20293;-77
2021/01/05 07:32:42;;;;;;;21.90;13.10;;;3.60;99.90;;;-146.47;100.00;66290.13;4894373;29;20215;-77
2021/01/05 07:35:28;;;;;;;21.67;13.83;;;3.70;99.90;;;-146.47;100.00;66290.13;4891935;29;20216;-77
2021/01/05 07:38:14;;;;;;;21.20;12.73;;;3.60;99.90;;;-146.47;100.00;66290.13;4892119;29;20223;-77
2021/01/05 07:40:59;;;;;;;18.83;12.00;;;3.60;99.90;;;-146.47;100.00;66290.13;4896887;29;20229;-77
2021/01/05 07:43:57;;;;;;;20.93;12.17;;;3.60;99.90;;;-146.47;100.00;66290.13;4897513;29;20224;-77
2021/01/05 07:46:42;;;;;;;23.97;12.90;;;3.60;99.90;;;-146.47;100.00;66290.13;4898563;29;20702;-78
2021/01/05 07:49:27;;;;;;;22.50;13.67;;;3.60;99.90;;;-146.47;100.00;66290.13;4891592;29;20279;-77
2021/01/05 07:52:24;;;;;;;25.27;14.23;;;3.60;99.90;;;-146.47;100.00;66290.13;4897765;29;20223;-76
2021/01/05 07:55:15;;;;;;;23.23;13.93;;;3.60;99.90;;;-146.47;100.00;66290.13;4897708;29;20216;-77
2021/01/05 07:58:00;;;;;;;22.47;14.27;;;3.60;99.90;;;-146.47;100.00;66290.13;4894623;29;20208;-78
2021/01/05 08:00:45;;;;;;;24.03;14.47;;;3.50;99.90;;;-146.47;100.00;66290.13;4888140;29;20256;-78
2021/01/05 08:03:30;;;;;;;24.40;14.67;;;3.60;99.90;;;-146.47;100.00;66290.13;4893406;29;20237;-77
2021/01/05 08:06:15;;;;;;;26.80;14.23;;;3.60;99.90;;;-146.47;100.00;66290.13;4889830;29;20245;-77
2021/01/05 08:09:01;;;;;;;25.20;14.23;;;3.60;99.90;;;-146.47;100.00;66290.13;4891179;29;20656;-77
2021/01/05 08:11:47;;;;;;;23.73;13.47;;;3.60;99.90;;;-146.47;100.00;66290.13;4889637;29;20208;-77
2021/01/05 08:14:32;;;;;;;22.00;13.13;;;3.60;99.90;;;-146.47;100.00;66290.13;4891304;29;20224;-78
2021/01/05 08:17:17;;;;;;;24.80;14.00;;;3.60;99.90;;;-146.47;100.00;66290.13;4894733;29;20264;-77
2021/01/05 08:20:04;;;;;;;24.87;13.90;;;3.60;99.90;;;-146.47;100.00;66290.13;4896633;29;20264;-77
2021/01/05 08:22:52;;;;;;;25.50;13.80;;;3.60;99.90;;;-146.47;100.00;66290.13;4887118;29;20278;-77
2021/01/05 08:25:37;;;;;;;26.07;13.53;;;3.60;99.90;;;-146.47;100.00;66290.13;4894456;29;20209;-77
2021/01/05 08:28:23;;;;;;;24.73;14.13;;;3.60;99.90;;;-146.47;100.00;66290.13;4897484;29;20675;-78
2021/01/05 08:31:09;;;;;;;27.53;13.97;;;3.60;99.90;;;-146.47;100.00;66290.13;4890820;29;20208;-76
2021/01/05 08:33:54;;;;;;;22.63;13.47;;;3.70;99.90;;;-146.47;100.00;66290.13;4894153;29;20208;-76
2021/01/05 08:36:39;;;;;;;24.63;13.83;;;3.70;99.90;;;-146.47;100.00;66290.13;4891146;29;20211;-78
2021/01/05 08:39:24;;;;;;;24.67;14.43;;;3.70;99.90;;;-146.47;100.00;66290.13;4894249;29;20252;-77
2021/01/05 08:42:10;;;;;;;21.87;13.63;;;3.70;99.90;;;-146.47;100.00;66290.13;4886110;29;20332;-77
2021/01/05 08:44:55;;;;;;;23.10;12.97;;;3.70;99.90;;;-146.47;100.00;66290.13;4891357;29;20249;-78
2021/01/05 08:47:41;;;;;;;24.37;13.30;;;3.70;99.90;;;-146.47;100.00;66290.13;4889259;29;20662;-77
2021/01/05 08:50:29;;;;;;;23.17;13.10;;;3.70;99.90;;;-146.47;100.00;66290.13;4890595;29;20572;-78
2021/01/05 08:53:14;;;;;;;22.93;14.07;;;3.70;99.90;;;-146.47;100.00;66290.13;4890585;29;20224;-78
2021/01/05 08:56:00;;;;;;;22.27;13.23;;;3.70;99.90;;;-146.47;100.00;66290.13;4896863;29;20223;-77
2021/01/05 08:58:45;;;;;;;25.37;14.53;;;3.70;99.90;;;-146.47;100.00;66290.13;4893909;29;20284;-77
2021/01/05 09:01:31;;;;;;;23.20;13.20;;;3.80;99.90;;;-146.47;100.00;66290.13;4884481;29;20225;-78
2021/01/05 09:04:16;;;;;;;23.43;15.23;;;3.80;99.90;;;-146.47;100.00;66290.13;4891200;29;20606;-77
2021/01/05 09:07:03;;;;;;;28.13;15.73;;;3.80;99.90;;;-146.47;100.00;66290.13;4891171;29;20216;-78
2021/01/05 09:09:48;;;;;;;24.33;14.93;;;3.80;99.90;;;-146.47;100.00;66290.13;4889015;29;20235;-77
2021/01/05 09:12:36;;;;;;;22.67;14.10;;;3.80;99.90;;;-146.47;100.00;66290.13;4893284;29;20209;-78
2021/01/05 09:15:23;;;;;;;24.77;14.83;;;3.80;99.90;;;-146.47;100.00;66290.13;4889366;29;20273;-77
2021/01/05 09:18:09;;;;;;;25.37;14.13;;;3.80;99.90;;;-146.47;100.00;66290.13;4891291;29;20228;-79
2021/01/05 09:20:56;;;;;;;22.70;13.63;;;3.80;99.90;;;-146.47;100.00;66290.13;4892989;29;20345;-77
2021/01/05 09:23:42;;;;;;;18.23;11.87;;;3.80;99.90;;;-146.47;100.00;66290.13;4883149;29;20245;-77
2021/01/05 09:26:30;;;;;;;22.00;13.50;;;3.80;99.90;;;-146.47;100.00;66290.13;4885509;29;20669;-77
2021/01/05 09:29:15;;;;;;;23.33;14.60;;;3.80;99.90;;;-146.47;100.00;66290.13;4882521;29;20305;-78
2021/01/05 09:32:01;;;;;;;22.17;12.77;;;3.90;99.90;;;-146.47;100.00;66290.13;4885809;29;20584;-78
2021/01/05 09:34:47;;;;;;;21.23;12.10;;;3.90;99.90;;;-146.47;100.00;66290.13;4889669;29;20264;-77
2021/01/05 09:37:32;;;;;;;22.90;13.87;;;3.90;99.90;;;-146.47;100.00;66290.13;4890203;29;20252;-77
2021/01/05 09:40:19;;;;;;;17.37;11.57;;;3.90;99.90;;;-146.47;100.00;66290.13;4890890;29;20245;-78
2021/01/05 09:43:06;;;;;;;23.90;12.83;;;3.90;99.90;;;-146.47;100.00;66290.13;4888056;29;20336;-78
2021/01/05 09:45:51;;;;;;;20.50;12.37;;;3.90;99.90;;;-146.47;100.00;66290.13;4888014;29;20268;-78
2021/01/05 09:48:36;;;;;;;22.80;11.93;;;3.90;99.90;;;-146.47;100.00;66290.13;4883680;29;20741;-78
2021/01/05 09:51:26;;;;;;;17.93;10.53;;;3.90;99.90;;;-146.47;100.00;66290.13;4888433;29;20785;-78
2021/01/05 09:54:12;;;;;;;23.40;12.40;;;3.90;99.90;;;-146.47;100.00;66290.13;4883191;29;20292;-78
2021/01/05 09:57:01;;;;;;;18.77;11.47;;;4.10;99.90;;;-146.47;100.00;66290.13;4890475;29;20216;-78
2021/01/05 09:59:46;;;;;;;22.67;13.33;;;4.00;99.90;;;-146.47;100.00;66290.13;4888044;29;20232;-78
2021/01/05 10:02:31;;;;;;;19.47;11.70;;;4.00;99.90;;;-146.47;100.00;66290.13;4885396;29;20226;-78
2021/01/05 10:05:17;;;;;;;18.37;11.80;;;4.00;99.90;;;-146.47;100.00;66290.13;4889444;29;20642;-77
2021/01/05 10:08:04;;;;;;;18.70;11.80;;;4.00;99.90;;;-146.47;100.00;66290.13;4884612;29;20261;-78
2021/01/05 10:10:49;;;;;;;22.97;12.73;;;4.00;99.90;;;-146.47;100.00;66290.13;4889390;29;20268;-78
2021/01/05 10:13:37;;;;;;;17.73;11.87;;;4.00;99.90;;;-146.47;100.00;66290.13;4889531;29;20273;-77
2021/01/05 10:16:22;;;;;;;20.70;12.67;;;4.00;99.90;;;-146.47;100.00;66290.13;4888509;29;20356;-77
2021/01/05 10:19:10;;;;;;;17.53;10.70;;;4.00;99.90;;;-146.47;100.00;66290.13;4885890;29;20236;-78
2021/01/05 10:21:55;;;;;;;17.80;11.67;;;4.00;99.90;;;-146.47;100.00;66290.13;4884479;29;20224;-77
2021/01/05 10:24:41;;;;;;;18.23;12.87;;;4.10;99.90;;;-146.47;100.00;66290.13;4889765;29;20240;-78
2021/01/05 10:27:26;;;;;;;20.80;12.33;;;4.10;99.90;;;-146.47;100.00;66290.13;4886667;29;20260;-77
2021/01/05 10:30:13;;;;;;;17.47;11.63;;;4.10;99.90;;;-146.47;100.00;66290.13;4889200;29;20208;-76
2021/01/05 10:32:58;;;;;;;18.40;11.97;;;4.10;99.90;;;-146.47;100.00;66290.13;4887588;29;20226;-79
2021/01/05 10:35:43;;;;;;;18.20;11.70;;;4.10;99.90;;;-146.47;100.00;66290.13;4892443;29;20220;-78
2021/01/05 10:38:28;;;;;;;19.97;11.80;;;4.10;99.90;;;-146.47;100.00;66290.13;4885402;29;20251;-78
2021/01/05 10:41:16;;;;;;;17.37;10.73;;;4.10;99.90;;;-146.47;100.00;66290.13;4890290;29;20612;-77
2021/01/05 10:44:01;;;;;;;16.60;10.60;;;4.10;99.90;;;-146.47;100.00;66290.13;4886289;29;20231;-78
2021/01/05 10:46:46;;;;;;;17.90;10.53;;;4.10;99.90;;;-146.47;100.00;66290.13;4883630;29;20220;-78
2021/01/05 10:49:32;;;;;;;15.70;9.80;;;4.10;99.90;;;-146.47;100.00;66290.13;4891990;29;20323;-78
2021/01/05 10:52:18;;;;;;;15.50;9.77;;;4.10;99.90;;;-146.47;100.00;66290.13;4895210;29;20241;-78
2021/01/05 10:55:05;;;;;;;16.20;10.20;;;4.10;99.90;;;-146.47;100.00;66290.13;4893091;29;20764;-78
2021/01/05 10:57:52;;;;;;;14.47;9.23;;;4.10;99.90;;;-146.47;100.00;66290.13;4886099;29;20310;-77
2021/01/05 11:00:36;;;;;;;13.77;9.00;;;4.10;99.90;;;-146.47;100.00;66290.13;4892089;29;20215;-78
2021/01/05 11:03:22;;;;;;;16.90;10.87;;;4.20;99.90;;;-146.47;100.00;66290.13;4890342;29;20621;-78
2021/01/05 11:06:08;;;;;;;15.27;10.10;;;4.10;99.90;;;-146.47;100.00;66290.13;4896062;29;20216;-77
2021/01/05 11:08:55;;;;;;;14.43;8.90;;;4.10;99.90;;;-146.47;100.00;66290.13;4884502;29;20228;-78
2021/01/05 11:11:40;;;;;;;14.30;9.83;;;4.10;99.90;;;-146.47;100.00;66290.13;4889785;29;20216;-79
2021/01/05 11:14:27;;;;;;;13.37;9.33;;;4.20;99.90;;;-146.47;100.00;66290.13;4889372;29;20264;-78
2021/01/05 11:17:12;;;;;;;14.13;9.77;;;4.20;99.90;;;-146.47;100.00;66290.13;4894422;29;20739;-78
2021/01/05 11:19:57;;;;;;;15.03;9.63;;;4.30;99.90;;;-146.47;100.00;66290.13;4885963;29;20248;-78
2021/01/05 11:22:43;;;;;;;14.37;10.33;;;4.20;99.90;;;-146.47;100.00;66290.13;4893620;29;20288;-77
2021/01/05 11:25:29;;;;;;;12.67;8.27;;;4.20;99.90;;;-146.47;100.00;66290.13;4886864;29;20217;-77
2021/01/05 11:28:15;;;;;;;14.07;9.17;;;4.20;99.90;;;-146.47;100.00;66290.13;4894535;29;20235;-77
2021/01/05 11:31:01;;;;;;;14.50;9.77;;;4.20;99.90;;;-146.47;100.00;66290.13;4899734;29;20212;-78